aviador You're here:

OJAQ Decoded Metar

AQABA in JORDAN
Report Time2018-06-21 19:00:00
UTC Time2018-06-21 19:52:11
Flight Rules vfr VFR
Wind350° at 10 kt
W.Decomp.*RWY 01: 9.2 kt HW 3.9 kt LCW
W.Rank350° ranks 2
Current wind is below 350° avg. (10.1)
Visibility9999 m
Phenomena:N/A
Clouds:N/A
Expected CloudBase > 4,800 ft AGL from Temp-Dew spread
CeilingNone
Temp34°C (ISA +19)
Dew Point22°C (49% RH)
Heat Index38.1°C
QNH1012 hPa
Density Alt2,746 ft
Elevation167 ft
Report Wrong Elevation
Raw Report
METAR OJAQ 211900Z 35010KT CAVOK 34/22 Q1012 NOSIG=

Extra information for OJAQ:More info

Metar Taf Metar & Taf Last 4 Metars F.Rules Stats Wind Profile Meteogram Temp Stats Airport Information Weather charts Add Link Nearby VenuesMetar ALERT Operation Metar Decoded Social comments